Time;durP1;ratioP1;P1;durP2;ratioP2;P2;SDS_P1;SDS_P2;PMS_P1;PMS_P2;Temp;Humidity;BMP_temperature;BMP_pressure;BME280_temperature;BME280_humidity;BME280_pressure;Samples;Min_cycle;Max_cycle;Signal;HPM_P1;HPM_P2
2023/02/28 00:00:09;;;;;;;8.97;6.53;;;-1.30;99.90;;;;;;5065801;28;20989;-79
2023/02/28 00:02:38;;;;;;;9.30;7.27;;;-1.20;99.90;;;;;;5066637;28;20174;-79
2023/02/28 00:05:05;;;;;;;8.10;6.50;;;-1.10;99.90;;;;;;5066661;28;20190;-78
2023/02/28 00:07:31;;;;;;;6.97;5.60;;;-1.10;99.90;;;;;;5064798;28;20189;-79
2023/02/28 00:09:57;;;;;;;7.77;6.47;;;-1.30;99.90;;;;;;5066067;28;20186;-78
2023/02/28 00:12:23;;;;;;;5.70;4.67;;;-1.40;99.90;;;;;;5064946;28;20272;-79
2023/02/28 00:14:49;;;;;;;4.97;3.50;;;-1.60;99.90;;;;;;5064945;28;20185;-80
2023/02/28 00:17:14;;;;;;;5.13;4.63;;;-1.80;99.90;;;;;;5074167;28;20216;-79
2023/02/28 00:19:40;;;;;;;6.73;5.07;;;-1.70;99.90;;;;;;5064506;28;20247;-79
2023/02/28 00:22:05;;;;;;;6.50;5.67;;;-1.50;99.90;;;;;;5065549;28;20211;-79
2023/02/28 00:24:31;;;;;;;6.67;4.93;;;-1.40;99.90;;;;;;5064816;28;20200;-79
2023/02/28 00:26:56;;;;;;;7.13;4.87;;;-1.30;99.90;;;;;;5066001;28;20186;-79
2023/02/28 00:29:22;;;;;;;5.57;4.87;;;-1.20;99.90;;;;;;5064865;28;20206;-79
2023/02/28 00:31:47;;;;;;;8.20;5.83;;;-1.20;99.90;;;;;;5065954;28;20214;-79
2023/02/28 00:34:13;;;;;;;6.87;5.37;;;-1.10;99.90;;;;;;5066092;28;20611;-79
2023/02/28 00:36:38;;;;;;;7.37;5.43;;;-1.00;99.90;;;;;;5065850;28;20755;-78
2023/02/28 00:39:04;;;;;;;7.50;5.53;;;-1.10;99.90;;;;;;5065021;28;20236;-79
2023/02/28 00:41:29;;;;;;;6.47;5.27;;;-1.00;99.90;;;;;;5065832;28;20191;-79
2023/02/28 00:43:55;;;;;;;8.27;6.63;;;-1.00;99.90;;;;;;5066061;28;20199;-80
2023/02/28 00:46:20;;;;;;;5.57;4.93;;;-1.00;99.90;;;;;;5064252;28;20309;-78
2023/02/28 00:48:46;;;;;;;5.50;4.40;;;-0.90;99.90;;;;;;5065899;28;20280;-79
2023/02/28 00:51:12;;;;;;;5.90;4.17;;;-0.80;99.90;;;;;;5065613;28;20280;-78
2023/02/28 00:53:37;;;;;;;8.07;5.00;;;-0.80;99.90;;;;;;5064403;28;20185;-78
2023/02/28 00:56:03;;;;;;;8.27;4.53;;;-0.80;86.90;;;;;;5064263;28;20209;-79
2023/02/28 00:58:29;;;;;;;5.33;4.10;;;-0.80;97.80;;;;;;5065460;28;20201;-79
2023/02/28 01:00:55;;;;;;;5.37;4.27;;;-0.80;81.80;;;;;;5064287;28;20268;-79
2023/02/28 01:03:22;;;;;;;5.87;4.40;;;-0.80;48.60;;;;;;5065487;28;20269;-78
2023/02/28 01:05:48;;;;;;;4.13;3.30;;;-0.90;97.60;;;;;;5065466;28;20193;-79
2023/02/28 01:08:14;;;;;;;4.80;2.43;;;-0.80;99.70;;;;;;5064034;28;21056;-79
2023/02/28 01:10:40;;;;;;;1.80;1.30;;;-1.00;66.70;;;;;;5071767;28;20186;-79
2023/02/28 01:13:06;;;;;;;4.50;2.50;;;-1.20;21.20;;;;;;5064995;28;20216;-78
2023/02/28 01:15:32;;;;;;;1.47;1.00;;;-1.30;23.60;;;;;;5065068;28;20643;-79
2023/02/28 01:17:57;;;;;;;2.47;1.73;;;-1.30;1.00;;;;;;5063504;28;20239;-79
2023/02/28 01:20:23;;;;;;;2.13;1.73;;;-1.20;1.00;;;;;;5064961;28;20558;-78
2023/02/28 01:22:49;;;;;;;2.80;1.90;;;-1.10;1.00;;;;;;5064693;28;20181;-79
2023/02/28 01:25:15;;;;;;;2.40;1.37;;;-0.90;4.40;;;;;;5065797;28;20591;-78
2023/02/28 01:27:40;;;;;;;2.67;1.30;;;0.70;1.00;;;;;;5064544;28;20176;-79
2023/02/28 01:30:08;;;;;;;1.97;1.60;;;-0.80;1.00;;;;;;5064652;28;20182;-79
2023/02/28 01:32:34;;;;;;;2.03;1.53;;;-0.70;1.00;;;;;;5064205;28;20178;-78
2023/02/28 01:34:59;;;;;;;2.77;1.90;;;-0.80;1.00;;;;;;5064497;28;20192;-79
2023/02/28 01:37:25;;;;;;;2.40;1.70;;;-0.80;1.00;;;;;;5063296;28;21046;-80
2023/02/28 01:39:50;;;;;;;2.00;1.40;;;-0.70;1.30;;;;;;5065068;28;20737;-78
2023/02/28 01:42:16;;;;;;;1.97;1.50;;;-0.60;9.90;;;;;;5064472;28;20207;-80
2023/02/28 01:45:02;;;;;;;2.77;1.50;;;-0.60;6.50;;;;;;5064273;28;20181;-78
2023/02/28 01:47:42;;;;;;;2.17;1.60;;;-0.60;1.00;;;;;;5063926;28;20189;-79
2023/02/28 01:50:14;;;;;;;2.20;1.70;;;-0.50;1.90;;;;;;5064162;28;20177;-79
2023/02/28 01:52:41;;;;;;;2.10;1.80;;;-0.50;8.90;;;;;;5064285;28;20185;-79
2023/02/28 01:55:08;;;;;;;3.37;1.77;;;-0.50;5.80;;;;;;5072545;28;20220;-78
2023/02/28 01:57:37;;;;;;;2.27;1.50;;;-0.70;1.00;;;;;;5063460;28;20570;-79
2023/02/28 02:00:09;;;;;;;1.70;1.60;;;-0.60;1.00;;;;;;5065738;28;20196;-79
2023/02/28 02:02:36;;;;;;;2.23;1.80;;;-0.70;2.60;;;;;;5065014;28;20186;-78
2023/02/28 02:05:12;;;;;;;2.27;1.50;;;-0.70;1.60;;;;;;5064271;28;20220;-79
2023/02/28 02:07:39;;;;;;;1.83;1.60;;;;;;;;;;5063645;28;20177;-79
2023/02/28 02:10:17;;;;;;;2.53;1.85;;;-0.70;99.90;;;;;;5071376;28;20770;-79
2023/02/28 02:13:10;;;;;;;2.07;1.70;;;-0.70;7.50;;;;;;5072043;28;20669;-81
2023/02/28 02:15:44;;;;;;;2.57;1.60;;;-0.90;1.00;;;;;;5064915;28;20208;-80
2023/02/28 02:18:34;;;;;;;2.13;1.60;;;-0.90;8.10;;;;;;5063693;28;20200;-77
2023/02/28 02:21:22;;;;;;;2.20;1.63;;;-1.10;1.00;;;;;;5063792;28;20192;-78
2023/02/28 02:24:14;;;;;;;1.93;1.53;;;-1.10;26.20;;;;;;5066840;28;20184;-78
2023/02/28 02:27:16;;;;;;;2.10;1.40;;;-1.00;47.50;;;;;;5059894;28;20200;-79
2023/02/28 02:30:12;;;;;;;2.27;1.60;;;-1.10;36.90;;;;;;5066666;28;20200;-80
2023/02/28 02:32:56;;;;;;;1.77;1.57;;;-1.00;30.80;;;;;;5066712;28;20256;-79
2023/02/28 02:35:31;;;;;;;2.17;1.27;;;-1.00;76.70;;;;;;5067993;28;21271;-78
2023/02/28 02:38:08;;;;;;;2.37;1.43;;;-1.00;56.90;;;;;;5066691;28;20205;-79
2023/02/28 02:41:24;;;;;;;2.43;1.63;;;-0.90;38.80;;;;;;5057819;28;20758;-79
2023/02/28 02:44:11;;;;;;;1.33;1.10;;;-0.90;10.70;;;;;;5015900;28;20229;-78
2023/02/28 02:46:43;;;;;;;1.50;1.40;;;-0.70;11.10;;;;;;5062318;28;20189;-78
2023/02/28 02:49:16;;;;;;;1.90;1.53;;;-0.80;1.00;;;;;;5067384;28;20211;-78
2023/02/28 02:51:44;;;;;;;2.27;1.60;;;-0.80;8.10;;;;;;5065686;28;20306;-79
2023/02/28 02:54:23;;;;;;;1.40;1.30;;;-0.80;15.20;;;;;;5068730;28;20186;-78
2023/02/28 02:56:50;;;;;;;2.07;1.20;;;-0.70;34.10;;;;;;5066838;28;20201;-79
2023/02/28 02:59:21;;;;;;;1.60;1.50;;;-0.60;30.50;;;;;;5066964;28;20244;-78
2023/02/28 03:01:53;;;;;;;1.97;1.40;;;-0.50;28.60;;;;;;5067933;28;20177;-78
2023/02/28 03:04:24;;;;;;;1.97;1.77;;;-0.40;22.40;;;;;;5068164;28;20551;-78
2023/02/28 03:06:55;;;;;;;1.40;1.30;;;-0.50;1.00;;;;;;5074223;28;20181;-78
2023/02/28 03:09:24;;;;;;;2.20;1.60;;;-0.50;1.00;;;;;;5067824;28;20205;-78
2023/02/28 03:11:51;;;;;;;1.77;1.40;;;;;;;;;;5067719;28;20189;-78
2023/02/28 03:14:46;;;;;;;1.80;1.50;;;-0.40;99.90;;;;;;5067519;28;20280;-78
2023/02/28 03:17:24;;;;;;;1.57;1.40;;;;;;;;;;5067374;28;20856;-78
2023/02/28 03:19:55;;;;;;;1.50;1.40;;;;;;;;;;5067802;28;20288;-78
2023/02/28 03:22:50;;;;;;;2.17;1.40;;;-0.40;1.00;;;;;;5073508;28;20276;-78
2023/02/28 03:25:36;;;;;;;1.40;1.30;;;-0.30;1.00;;;;;;5067807;28;20723;-80
2023/02/28 03:28:18;;;;;;;2.63;1.60;;;-0.40;14.10;;;;;;5067038;28;20217;-78
2023/02/28 03:30:57;;;;;;;1.67;1.57;;;-0.40;20.30;;;;;;5067947;28;20221;-78
2023/02/28 03:33:33;;;;;;;2.97;1.90;;;-0.40;24.40;;;;;;5068102;28;20698;-79
2023/02/28 03:36:26;;;;;;;2.10;1.77;;;-0.40;25.70;;;;;;5067795;28;20197;-78
2023/02/28 03:39:03;;;;;;;2.00;1.73;;;-0.40;29.60;;;;;;5065557;28;20267;-78
2023/02/28 03:41:38;;;;;;;2.27;1.87;;;-0.40;21.70;;;;;;5067133;28;20177;-78
2023/02/28 03:44:09;;;;;;;3.00;2.00;;;-0.30;16.80;;;;;;5067460;28;20260;-79
2023/02/28 03:46:38;;;;;;;2.10;1.90;;;-0.40;14.70;;;;;;5067471;28;20185;-81
2023/02/28 03:49:16;;;;;;;3.70;2.03;;;-0.40;13.30;;;;;;5067154;28;20225;-79
2023/02/28 03:51:46;;;;;;;2.03;1.80;;;-0.40;15.70;;;;;;5066609;28;20657;-79
2023/02/28 03:54:31;;;;;;;2.27;2.00;;;-0.40;23.20;;;;;;5067510;28;20191;-79
2023/02/28 03:57:03;;;;;;;2.10;1.83;;;-0.40;31.20;;;;;;5067035;28;20588;-80
2023/02/28 03:59:38;;;;;;;2.83;2.20;;;-0.40;24.10;;;;;;5067361;28;21033;-78
2023/02/28 04:02:04;;;;;;;2.90;2.60;;;-0.50;12.00;;;;;;5066087;28;20188;-78
2023/02/28 04:04:30;;;;;;;2.20;2.00;;;-0.70;1.00;;;;;;5074857;28;20178;-78
2023/02/28 04:07:08;;;;;;;2.53;2.20;;;-0.70;20.00;;;;;;5067022;28;20200;-78
2023/02/28 04:09:34;;;;;;;2.80;2.30;;;-0.70;43.20;;;;;;5067389;28;20208;-79
2023/02/28 04:11:59;;;;;;;3.00;2.37;;;-0.70;44.50;;;;;;5073958;28;20185;-78
2023/02/28 04:14:25;;;;;;;3.33;2.40;;;-0.60;28.90;;;;;;5065086;28;20688;-78
2023/02/28 04:16:51;;;;;;;3.20;2.27;;;-0.50;14.10;;;;;;5065513;28;20205;-78
2023/02/28 04:19:17;;;;;;;3.00;2.10;;;-0.40;6.70;;;;;;5065552;28;20209;-78
2023/02/28 04:21:46;;;;;;;2.83;2.23;;;-0.40;3.20;;;;;;5066524;28;20191;-78
2023/02/28 04:24:17;;;;;;;2.37;2.17;;;-0.40;1.40;;;;;;5056827;28;20189;-78
2023/02/28 04:26:46;;;;;;;2.83;2.20;;;-0.30;8.40;;;;;;5065363;28;20556;-78
2023/02/28 04:29:13;;;;;;;2.63;2.10;;;-0.30;3.10;;;;;;5065828;28;20730;-78
2023/02/28 04:31:39;;;;;;;2.77;1.83;;;-0.30;1.00;;;;;;5066151;28;20187;-79
2023/02/28 04:34:05;;;;;;;2.27;1.90;;;-0.30;1.00;;;;;;5066733;28;20185;-78
2023/02/28 04:36:31;;;;;;;2.20;2.00;;;-0.30;1.00;;;;;;5065300;28;20245;-78
2023/02/28 04:38:57;;;;;;;2.37;1.77;;;-0.30;1.00;;;;;;5074171;28;20251;-79
2023/02/28 04:41:23;;;;;;;2.83;2.03;;;-0.30;1.00;;;;;;5066170;28;21174;-78
2023/02/28 04:43:50;;;;;;;1.80;1.63;;;-0.30;5.30;;;;;;5073459;28;20192;-78
2023/02/28 04:46:18;;;;;;;3.43;1.73;;;-0.30;5.90;;;;;;5065963;28;20190;-79
2023/02/28 04:48:44;;;;;;;3.03;1.65;;;-0.30;3.00;;;;;;5065631;28;20476;-80
2023/02/28 04:51:12;;;;;;;2.47;1.70;;;-0.30;1.30;;;;;;5066055;28;20181;-78
2023/02/28 04:53:40;;;;;;;2.13;1.90;;;-0.30;1.00;;;;;;5067121;28;20208;-78
2023/02/28 04:56:07;;;;;;;2.17;1.70;;;-0.20;1.00;;;;;;5065416;28;20242;-78
2023/02/28 04:58:32;;;;;;;2.37;1.93;;;-0.20;1.00;;;;;;5073845;28;20288;-78
2023/02/28 05:01:12;;;;;;;2.13;1.70;;;-0.20;1.00;;;;;;5066429;28;20261;-78
2023/02/28 05:03:40;;;;;;;3.03;1.70;;;-0.20;1.00;;;;;;5066782;28;20169;-79
2023/02/28 05:06:06;;;;;;;3.00;1.80;;;-0.20;1.00;;;;;;5073184;28;20269;-78
2023/02/28 05:08:32;;;;;;;1.93;1.63;;;-0.20;1.00;;;;;;5066632;28;20201;-78
2023/02/28 05:10:58;;;;;;;2.27;1.87;;;-0.20;1.10;;;;;;5066392;28;20182;-78
2023/02/28 05:13:23;;;;;;;2.47;1.83;;;-0.20;1.00;;;;;;5066925;28;20193;-78
2023/02/28 05:15:49;;;;;;;2.57;1.90;;;-0.30;1.00;;;;;;5066294;28;20209;-78
2023/02/28 05:18:14;;;;;;;2.43;1.50;;;-0.30;1.00;;;;;;5065081;28;20297;-78
2023/02/28 05:20:40;;;;;;;1.87;1.50;;;-0.30;3.20;;;;;;5065166;28;20213;-78
2023/02/28 05:23:06;;;;;;;2.03;1.70;;;-0.40;1.00;;;;;;5065769;28;20272;-78
2023/02/28 05:25:31;;;;;;;2.87;2.03;;;-0.30;1.00;;;;;;5064491;28;20177;-78
2023/02/28 05:27:57;;;;;;;2.97;1.70;;;-0.30;1.00;;;;;;5064609;28;21100;-78
2023/02/28 05:30:22;;;;;;;2.23;1.80;;;-0.20;3.60;;;;;;5065636;28;20677;-78
2023/02/28 05:32:51;;;;;;;2.17;1.97;;;-0.20;1.00;;;;;;5064162;28;20665;-78
2023/02/28 05:35:16;;;;;;;2.57;2.10;;;-0.20;1.00;;;;;;5064773;28;20239;-79
2023/02/28 05:37:42;;;;;;;2.70;1.90;;;-0.10;2.30;;;;;;5072410;28;20186;-78
2023/02/28 05:40:11;;;;;;;2.30;1.90;;;-0.10;1.00;;;;;;5064218;28;20688;-78
2023/02/28 05:42:37;;;;;;;1.97;1.70;;;-0.10;1.00;;;;;;5065124;28;20177;-79
2023/02/28 05:45:04;;;;;;;3.10;2.00;;;-0.10;1.00;;;;;;5065655;28;20256;-78
2023/02/28 05:47:29;;;;;;;1.97;1.80;;;-0.10;1.00;;;;;;5073763;28;20607;-79
2023/02/28 05:49:55;;;;;;;2.20;1.90;;;-0.10;1.00;;;;;;5064711;28;20276;-78
2023/02/28 05:52:21;;;;;;;2.00;1.80;;;-0.10;3.30;;;;;;5065306;28;20182;-78
2023/02/28 05:54:46;;;;;;;2.53;2.33;;;-0.10;1.00;;;;;;5065143;28;20185;-78
2023/02/28 05:57:12;;;;;;;2.37;2.10;;;-0.10;1.00;;;;;;5066176;28;20289;-81
2023/02/28 05:59:39;;;;;;;2.00;1.80;;;-0.10;2.60;;;;;;5069592;28;20201;-79
2023/02/28 06:02:08;;;;;;;2.70;1.90;;;-0.10;2.30;;;;;;5070654;28;20181;-79
2023/02/28 06:04:33;;;;;;;2.30;2.00;;;-0.10;1.00;;;;;;5070165;28;20178;-78
2023/02/28 06:06:59;;;;;;;2.63;2.03;;;-0.10;1.00;;;;;;5070142;28;20240;-79
2023/02/28 06:09:25;;;;;;;2.77;2.00;;;-0.20;1.00;;;;;;5070096;28;20289;-79
2023/02/28 06:11:50;;;;;;;3.27;2.10;;;-0.20;1.00;;;;;;5068662;28;20776;-78
2023/02/28 06:14:18;;;;;;;2.20;2.00;;;-0.20;2.70;;;;;;5068755;28;20212;-77
2023/02/28 06:16:44;;;;;;;2.33;2.13;;;-0.10;1.00;;;;;;5077089;28;20254;-77
2023/02/28 06:19:10;;;;;;;1.90;1.70;;;-0.10;1.00;;;;;;5068431;28;20574;-78
2023/02/28 06:21:36;;;;;;;2.53;2.20;;;-0.10;1.00;;;;;;5068484;28;20264;-78
2023/02/28 06:24:03;;;;;;;2.70;2.10;;;0.00;1.00;;;;;;5069609;28;20186;-78
2023/02/28 06:26:28;;;;;;;3.77;2.47;;;0.00;13.90;;;;;;5068469;28;20189;-79
2023/02/28 06:28:55;;;;;;;2.20;2.00;;;0.00;1.00;;;;;;5067914;28;20216;-79
2023/02/28 06:31:21;;;;;;;2.27;2.00;;;0.00;3.00;;;;;;5068710;28;21202;-79
2023/02/28 06:33:47;;;;;;;1.70;1.60;;;0.00;1.00;;;;;;5068240;28;21223;-78
2023/02/28 06:36:15;;;;;;;1.43;1.20;;;0.00;1.00;;;;;;5069061;28;20212;-79
2023/02/28 06:38:40;;;;;;;1.47;1.30;;;0.10;1.00;;;;;;5068874;28;20331;-80
2023/02/28 06:41:07;;;;;;;1.60;1.43;;;0.20;1.00;;;;;;5068233;28;20268;-79
2023/02/28 06:43:36;;;;;;;2.93;1.77;;;0.30;1.00;;;;;;5069204;28;20185;-78
2023/02/28 06:46:05;;;;;;;2.30;1.30;;;0.40;1.00;;;;;;5068407;28;20932;-78
2023/02/28 06:48:31;;;;;;;2.00;1.13;;;0.40;1.00;;;;;;5066720;28;20697;-78
2023/02/28 06:51:24;;;;;;;1.40;1.20;;;0.40;1.00;;;;;;5068536;28;20200;-77
2023/02/28 06:53:50;;;;;;;1.70;1.27;;;0.50;1.00;;;;;;5066207;28;20193;-79
2023/02/28 06:56:17;;;;;;;1.47;1.30;;;0.40;1.00;;;;;;5068119;28;20280;-78
2023/02/28 06:58:50;;;;;;;1.80;1.30;;;1.50;1.00;;;;;;5067413;28;20248;-78
2023/02/28 07:01:16;;;;;;;2.67;2.03;;;0.30;1.00;;;;;;5068171;28;20181;-78
2023/02/28 07:03:41;;;;;;;2.50;1.10;;;0.20;1.00;;;;;;5068818;28;20178;-77
2023/02/28 07:06:07;;;;;;;2.60;1.50;;;0.30;1.00;;;;;;5068259;28;20185;-79
2023/02/28 07:08:33;;;;;;;1.30;1.20;;;0.20;1.00;;;;;;5067416;28;20210;-79
2023/02/28 07:10:59;;;;;;;2.67;1.23;;;0.30;1.00;;;;;;5075088;28;20601;-79
2023/02/28 07:13:25;;;;;;;2.03;1.40;;;0.30;1.00;;;;;;5065714;28;20198;-80
2023/02/28 07:15:56;;;;;;;1.93;1.50;;;0.30;1.00;;;;;;5067690;28;20293;-80
2023/02/28 07:18:22;;;;;;;2.57;1.30;;;0.30;1.00;;;;;;5067813;28;20280;-78
2023/02/28 07:20:47;;;;;;;1.07;0.87;;;0.40;1.00;;;;;;5066644;28;20304;-80
2023/02/28 07:23:13;;;;;;;1.93;1.40;;;0.40;1.00;;;;;;5067681;28;20268;-79
2023/02/28 07:25:39;;;;;;;1.87;1.20;;;0.40;1.00;;;;;;5067545;28;20181;-80
2023/02/28 07:28:04;;;;;;;1.83;1.30;;;0.40;1.00;;;;;;5066159;28;20213;-79
2023/02/28 07:30:30;;;;;;;3.20;1.27;;;0.40;1.00;;;;;;5066246;28;20196;-80
2023/02/28 07:32:55;;;;;;;2.33;1.20;;;0.30;1.00;;;;;;5065882;28;20229;-79
2023/02/28 07:35:22;;;;;;;2.53;1.10;;;0.30;1.00;;;;;;5065103;28;20320;-79
2023/02/28 07:37:47;;;;;;;3.33;1.50;;;0.40;1.00;;;;;;5066390;28;20192;-79
2023/02/28 07:40:13;;;;;;;2.60;1.20;;;0.50;1.00;;;;;;5067723;28;20738;-78
2023/02/28 07:42:41;;;;;;;2.77;1.40;;;0.50;1.00;;;;;;5067554;28;20232;-79
2023/02/28 07:45:08;;;;;;;1.53;1.00;;;0.60;1.00;;;;;;5074023;28;20201;-80
2023/02/28 07:47:34;;;;;;;3.17;1.30;;;0.50;1.00;;;;;;5065634;28;20643;-79
2023/02/28 07:49:59;;;;;;;1.73;0.90;;;0.50;1.00;;;;;;5067664;28;20591;-79
2023/02/28 07:52:25;;;;;;;1.47;1.00;;;0.60;1.00;;;;;;5065302;28;20199;-78
2023/02/28 07:54:51;;;;;;;2.50;1.10;;;0.60;1.00;;;;;;5067711;28;20200;-79
2023/02/28 07:57:17;;;;;;;2.17;1.33;;;0.70;1.00;;;;;;5066973;28;20221;-79
2023/02/28 07:59:43;;;;;;;3.27;1.60;;;0.80;1.00;;;;;;5066357;28;20208;-80
2023/02/28 08:02:15;;;;;;;1.33;1.23;;;0.80;1.00;;;;;;5066869;28;20185;-79
2023/02/28 08:04:41;;;;;;;2.30;1.70;;;0.90;1.00;;;;;;5064962;28;20711;-79
2023/02/28 08:07:07;;;;;;;2.50;1.73;;;0.90;1.00;;;;;;5066092;28;20223;-79
2023/02/28 08:09:34;;;;;;;3.33;2.00;;;0.90;1.00;;;;;;5067236;28;20232;-78
2023/02/28 08:11:59;;;;;;;2.40;2.03;;;0.90;1.00;;;;;;5067462;28;20184;-78
2023/02/28 08:14:25;;;;;;;3.60;1.87;;;0.90;1.00;;;;;;5065107;28;20657;-79
2023/02/28 08:16:50;;;;;;;3.87;2.33;;;0.90;1.00;;;;;;5065903;28;20240;-78
2023/02/28 08:19:16;;;;;;;3.90;1.93;;;0.90;1.00;;;;;;5066868;28;20685;-79
2023/02/28 08:21:41;;;;;;;2.30;1.77;;;1.00;1.00;;;;;;5064929;28;20750;-79
2023/02/28 08:24:07;;;;;;;6.57;2.67;;;1.10;1.00;;;;;;5062187;28;20663;-78
2023/02/28 08:26:33;;;;;;;6.00;3.07;;;1.10;1.00;;;;;;5065586;28;20728;-78
2023/02/28 08:28:58;;;;;;;2.63;1.57;;;1.20;1.00;;;;;;5066076;28;20244;-79
2023/02/28 08:31:24;;;;;;;2.80;1.60;;;1.30;1.00;;;;;;5067558;28;20185;-78
2023/02/28 08:33:51;;;;;;;2.37;1.83;;;1.30;1.00;;;;;;5065410;28;20657;-78
2023/02/28 08:36:19;;;;;;;2.50;2.00;;;1.50;1.00;;;;;;5066349;28;20201;-78
2023/02/28 08:38:45;;;;;;;3.13;1.80;;;1.60;1.00;;;;;;5065834;28;20204;-79
2023/02/28 08:41:12;;;;;;;2.67;2.00;;;1.70;1.00;;;;;;5064563;28;20340;-79
2023/02/28 08:43:39;;;;;;;4.07;2.37;;;1.70;1.00;;;;;;5066529;28;20923;-78
2023/02/28 08:46:05;;;;;;;3.50;2.37;;;1.70;1.00;;;;;;5066653;28;20607;-77
2023/02/28 08:48:33;;;;;;;3.93;2.13;;;1.80;1.00;;;;;;5068515;28;20258;-77
2023/02/28 08:51:04;;;;;;;4.20;2.47;;;1.80;1.00;;;;;;5069907;28;20227;-78
2023/02/28 08:53:31;;;;;;;4.13;2.77;;;1.90;1.00;;;;;;5068710;28;20189;-80
2023/02/28 08:56:05;;;;;;;3.13;2.30;;;1.90;1.00;;;;;;5069699;28;20362;-80
2023/02/28 08:58:31;;;;;;;3.50;2.30;;;1.90;1.00;;;;;;5068461;28;20345;-80
2023/02/28 09:00:57;;;;;;;4.00;2.50;;;2.00;1.00;;;;;;5065047;28;20760;-80
2023/02/28 09:03:23;;;;;;;2.70;1.60;;;2.00;1.00;;;;;;5068160;28;20173;-80
2023/02/28 09:06:00;;;;;;;3.20;2.00;;;1.90;1.00;;;;;;5066937;28;20181;-80
2023/02/28 09:08:28;;;;;;;4.73;2.30;;;2.10;1.00;;;;;;5066750;28;20394;-80
2023/02/28 09:10:54;;;;;;;3.20;2.07;;;2.20;1.00;;;;;;5063100;28;20197;-79
2023/02/28 09:13:20;;;;;;;3.90;2.30;;;2.20;1.00;;;;;;5059435;28;20250;-78
2023/02/28 09:15:46;;;;;;;3.00;1.97;;;2.30;1.00;;;;;;5064886;28;20205;-80
2023/02/28 09:18:12;;;;;;;3.07;2.27;;;2.30;1.00;;;;;;5064029;28;20289;-78
2023/02/28 09:20:39;;;;;;;3.20;2.27;;;2.30;1.00;;;;;;5062232;28;20301;-79
2023/02/28 09:23:06;;;;;;;3.83;2.00;;;2.30;1.00;;;;;;5065466;28;20185;-80
2023/02/28 09:25:32;;;;;;;2.67;2.00;;;2.30;1.00;;;;;;5065565;28;20173;-78
2023/02/28 09:27:57;;;;;;;3.57;2.03;;;2.40;1.00;;;;;;5066032;28;20236;-80
2023/02/28 09:30:23;;;;;;;2.67;1.83;;;2.50;1.00;;;;;;5064546;28;20204;-78
2023/02/28 09:32:51;;;;;;;6.83;2.50;;;2.50;1.00;;;;;;5067138;28;20205;-78
2023/02/28 09:35:18;;;;;;;13.00;2.83;;;2.50;1.00;;;;;;5069709;28;20607;-79
2023/02/28 09:37:44;;;;;;;3.13;2.27;;;2.70;1.00;;;;;;5069582;28;20409;-80
2023/02/28 09:40:11;;;;;;;2.90;2.30;;;2.80;1.00;;;;;;5069441;28;20678;-79
2023/02/28 09:42:37;;;;;;;2.23;2.03;;;2.80;1.00;;;;;;5069768;28;20295;-79
2023/02/28 09:45:13;;;;;;;2.47;2.27;;;2.80;1.00;;;;;;5063358;28;20726;-79
2023/02/28 09:47:45;;;;;;;2.87;2.00;;;2.90;1.00;;;;;;5067775;28;20189;-79
2023/02/28 09:50:41;;;;;;;3.53;2.17;;;2.90;1.00;;;;;;5064986;28;20189;-79
2023/02/28 09:53:33;;;;;;;2.53;2.10;;;3.00;1.00;;;;;;5068179;28;20245;-79
2023/02/28 09:56:04;;;;;;;2.83;2.00;;;3.10;52.30;;;;;;5068838;28;20237;-79
2023/02/28 09:59:00;;;;;;;2.93;2.13;;;3.00;1.00;;;;;;5068418;28;20964;-80
2023/02/28 10:01:36;;;;;;;2.10;1.90;;;3.20;1.00;;;;;;5066436;28;20273;-78
2023/02/28 10:04:12;;;;;;;2.60;1.73;;;3.30;40.90;;;;;;5076740;28;20707;-77
2023/02/28 10:06:49;;;;;;;3.63;2.17;;;3.10;90.60;;;;;;5068080;28;20219;-78
2023/02/28 10:09:26;;;;;;;2.40;2.20;;;3.20;1.00;;;;;;5069965;28;20291;-79
2023/02/28 10:11:55;;;;;;;2.90;2.10;;;3.20;1.00;;;;;;5069593;28;20185;-79
2023/02/28 10:14:24;;;;;;;4.53;2.37;;;3.40;1.00;;;;;;5063855;28;20587;-79
2023/02/28 10:17:09;;;;;;;2.77;1.90;;;4.00;11.40;;;;;;5068610;28;20197;-79
2023/02/28 10:19:53;;;;;;;2.57;2.10;;;3.20;1.00;;;;;;5067025;28;20193;-79
2023/02/28 10:22:31;;;;;;;2.50;1.73;;;3.40;6.50;;;;;;5075582;28;20829;-79
2023/02/28 10:24:59;;;;;;;2.20;1.77;;;3.90;1.00;;;;;;5076592;28;20182;-79
2023/02/28 10:27:34;;;;;;;3.80;1.93;;;3.60;91.20;;;;;;5066473;28;20595;-78
2023/02/28 10:30:02;;;;;;;2.83;2.00;;;3.60;99.90;;;;;;5068298;28;20189;-79
2023/02/28 10:32:32;;;;;;;2.97;2.17;;;3.40;1.00;;;;;;5076940;28;20185;-79
2023/02/28 10:35:00;;;;;;;3.80;2.40;;;3.50;1.00;;;;;;5069656;28;20230;-79
2023/02/28 10:37:27;;;;;;;3.50;2.17;;;3.60;1.00;;;;;;5068046;28;20205;-80
2023/02/28 10:39:53;;;;;;;2.30;1.77;;;3.80;1.00;;;;;;5067302;28;20815;-81
2023/02/28 10:42:27;;;;;;;3.93;1.97;;;3.70;1.00;;;;;;5066338;28;20303;-81
2023/02/28 10:45:15;;;;;;;3.00;1.90;;;3.90;1.00;;;;;;5065244;28;20267;-79
2023/02/28 10:48:06;;;;;;;2.20;1.60;;;3.60;1.00;;;;;;5068849;28;20173;-80
2023/02/28 10:50:34;;;;;;;4.43;2.23;;;3.90;1.00;;;;;;5077554;28;20181;-79
2023/02/28 10:53:28;;;;;;;2.63;1.87;;;4.00;1.00;;;;;;5071280;28;20189;-79
2023/02/28 10:56:21;;;;;;;2.10;1.80;;;4.30;65.60;;;;;;5071673;28;20276;-79
2023/02/28 10:59:08;;;;;;;2.53;1.80;;;4.20;44.00;;;;;;5069477;28;20205;-79
2023/02/28 11:01:38;;;;;;;3.00;2.00;;;4.30;1.00;;;;;;5077812;28;20170;-80
2023/02/28 11:04:39;;;;;;;2.87;1.63;;;4.30;1.00;;;;;;5072021;28;20205;-79
2023/02/28 11:07:20;;;;;;;1.80;1.57;;;4.30;13.10;;;;;;5069474;28;20223;-77
2023/02/28 11:09:49;;;;;;;2.43;1.80;;;4.20;1.00;;;;;;5070552;28;20232;-79
2023/02/28 11:12:47;;;;;;;2.90;2.03;;;4.00;1.00;;;;;;5071376;28;20182;-79
2023/02/28 11:15:24;;;;;;;3.23;2.20;;;4.10;1.00;;;;;;5067611;28;20212;-78
2023/02/28 11:17:55;;;;;;;2.10;1.90;;;4.10;1.00;;;;;;5070827;28;20563;-79
2023/02/28 11:20:25;;;;;;;2.30;1.70;;;4.00;1.00;;;;;;5069316;28;20174;-80
2023/02/28 11:22:52;;;;;;;2.53;2.10;;;4.20;1.00;;;;;;5070588;28;20268;-78
2023/02/28 11:25:25;;;;;;;2.17;1.73;;;4.10;12.20;;;;;;5068256;28;20177;-76
2023/02/28 11:27:54;;;;;;;6.17;2.20;;;4.10;1.00;;;;;;5068407;28;20186;-79
2023/02/28 11:30:38;;;;;;;2.97;2.10;;;4.20;1.00;;;;;;5069677;28;20189;-78
2023/02/28 11:33:30;;;;;;;3.07;2.00;;;4.30;1.00;;;;;;5069538;28;20177;-79
2023/02/28 11:36:29;;;;;;;2.63;2.00;;;4.30;1.00;;;;;;5068762;28;20201;-78
2023/02/28 11:39:01;;;;;;;2.63;2.40;;;4.30;1.00;;;;;;5067945;28;20582;-79
2023/02/28 11:41:32;;;;;;;1.83;1.70;;;4.10;1.00;;;;;;5068615;28;20663;-79
2023/02/28 11:44:11;;;;;;;1.80;1.60;;;4.10;1.00;;;;;;5067621;28;20224;-78
2023/02/28 11:46:57;;;;;;;2.37;1.70;;;4.30;1.00;;;;;;5065519;28;20185;-78
2023/02/28 11:50:00;;;;;;;2.57;2.07;;;4.30;1.00;;;;;;5066952;28;20232;-79
2023/02/28 11:52:29;;;;;;;3.13;1.90;;;4.40;1.00;;;;;;5070595;28;20618;-79
2023/02/28 11:55:03;;;;;;;2.97;1.90;;;4.50;1.00;;;;;;5069790;28;20188;-79
2023/02/28 11:57:35;;;;;;;2.13;1.70;;;4.50;1.00;;;;;;5067846;28;20196;-79
2023/02/28 12:00:01;;;;;;;2.07;1.87;;;4.30;1.00;;;;;;5070375;28;20180;-79
2023/02/28 12:02:53;;;;;;;2.33;2.00;;;4.50;1.00;;;;;;5069627;28;20621;-81
2023/02/28 12:05:45;;;;;;;2.10;1.80;;;4.40;1.00;;;;;;5069124;28;20174;-78
2023/02/28 12:08:43;;;;;;;3.13;1.87;;;4.60;1.00;;;;;;5068010;28;21118;-79
2023/02/28 12:11:27;;;;;;;2.30;1.90;;;4.50;1.00;;;;;;5069670;28;20608;-79
2023/02/28 12:13:53;;;;;;;2.10;1.90;;;4.50;1.00;;;;;;5065052;28;20201;-79
2023/02/28 12:16:33;;;;;;;3.80;2.00;;;4.50;1.00;;;;;;5065381;28;20209;-79
2023/02/28 12:19:46;;;;;;;2.10;1.87;;;4.60;1.00;;;;;;5076422;28;21038;-79
2023/02/28 12:22:39;;;;;;;2.57;2.20;;;4.70;1.00;;;;;;5037815;28;20185;-79
2023/02/28 12:25:16;;;;;;;2.30;2.10;;;4.70;1.00;;;;;;5067445;28;20201;-79
2023/02/28 12:27:46;;;;;;;5.90;2.60;;;4.70;1.00;;;;;;5074262;28;20185;-79
2023/02/28 12:30:27;;;;;;;2.20;2.00;;;4.80;1.00;;;;;;5065273;28;20544;-80
2023/02/28 12:33:00;;;;;;;2.93;2.00;;;4.80;1.00;;;;;;5073192;28;20272;-80
2023/02/28 12:35:41;;;;;;;2.20;2.00;;;4.80;1.00;;;;;;5063729;28;20263;-79
2023/02/28 12:38:14;;;;;;;3.03;1.90;;;4.60;1.00;;;;;;5063771;28;20258;-79
2023/02/28 12:40:44;;;;;;;2.53;2.33;;;4.80;1.00;;;;;;5064863;28;20223;-79
2023/02/28 12:43:14;;;;;;;2.33;2.10;;;5.60;1.00;;;;;;5067077;28;20643;-80
2023/02/28 12:45:46;;;;;;;2.63;2.13;;;4.80;1.00;;;;;;5064984;28;20177;-80
2023/02/28 12:48:21;;;;;;;3.10;2.30;;;4.70;1.00;;;;;;5066466;28;20197;-80
2023/02/28 12:50:48;;;;;;;2.77;2.33;;;4.80;1.00;;;;;;5066132;28;20177;-80
2023/02/28 12:53:46;;;;;;;3.50;2.07;;;4.80;1.00;;;;;;5066987;28;20193;-79
2023/02/28 12:56:18;;;;;;;2.37;2.17;;;4.90;1.00;;;;;;5067955;28;20197;-80
2023/02/28 12:58:44;;;;;;;2.70;2.00;;;4.90;1.00;;;;;;5066813;28;20570;-79
2023/02/28 13:01:38;;;;;;;2.77;1.83;;;4.80;1.00;;;;;;5067596;28;20185;-79
2023/02/28 13:04:32;;;;;;;3.10;2.10;;;4.80;1.00;;;;;;5068934;28;20237;-79
2023/02/28 13:07:16;;;;;;;2.37;1.97;;;4.80;1.00;;;;;;5074589;28;20182;-79
2023/02/28 13:09:56;;;;;;;3.23;2.10;;;4.80;1.00;;;;;;5065971;28;21063;-79
2023/02/28 13:12:22;;;;;;;2.53;2.33;;;4.60;1.00;;;;;;5064145;28;20208;-80
2023/02/28 13:14:52;;;;;;;3.50;2.20;;;4.60;1.00;;;;;;5068694;28;20214;-79
2023/02/28 13:17:21;;;;;;;7.97;6.70;;;4.60;1.00;;;;;;5061390;28;20212;-80
2023/02/28 13:19:58;;;;;;;8.10;7.13;;;4.70;1.00;;;;;;5065723;28;20243;-80
2023/02/28 13:22:40;;;;;;;14.83;11.13;;;4.80;1.00;;;;;;5063481;28;20503;-79